__    __ __   
 .--.--|  |--|__|  |_ 
 |_   _|  _  |  |   _|
 |__.__|_____|__|____|

xBiT does not host or store any illegal contents on its servers. 
All this website does is present information that was collected across 
various sources over the internet and as such, cannot be held responsible
for any content.
Please donate us if you can, even small amount help us :)
Bitcoin SegWit         : 3A5HYJxzWoH2HuzDfYWC7n1v8uZdk17Nvs
Bitcoin NON-SegWit     : 13DFKACYDfqVqBve8cpW3TD2scSxTJmKg6
BitCoin Cash (BCH)     : 1Hso8iWho16zyMB6hEWaF8bDbScfE6r4wp
BitCoin Gold (BTG)     : Ac6Czyz5jpcZZLtVDGjxeGCVamvkuLx7Ze
Dash (DASH)            : XuuQTibhokJR7bxvwEfxH5wpQTpiH3vfHZ
LiteCoin (LTC)         : MFoiZomckzXHTxV833cV3FRydLL3wsqzdW
Zcash (ZEC)            : t1Ry1yKwcVtD5zeewSDPXV1Mcjhj9QvmY4M
Ethereum (ETH)         : 0x4be3e4fCdE80Ab43809c8c27bB3D1E9a3ea26900
Ethereum Classic (ETC) : 0x9E7F9C18646AB4ecA01a27451bFdb6F8d6588ff8

[ ]-[ API ]-[RELEASES: 14,592,108]-[FILES: 361,828,863]-[FILES-SIZE: ~]

Boy.Erased.
A.Star.is.B
Reign.of.th
Ashes.in.th
Suspiria.20
King.of.Thi
Bohemian.Rh
Hunter.Kill
The.Ballad.
The.Clovehi
Speed.Kills
Mile.22.201
The.Little.
Mission.Imp
[ #14540281 ]-[ ceea3228e30381720661fa58a2db48ccf12dc483 ]-[ Crazy.Rich.Asians.2018.1080p.AMZN.WEB-DL.DDP5.1.H.264-NTG ]-[ 4.45GB ]-[ 2019-01-18 03:32:17 ]
[ #14501690 ]-[ 8da5baba805a320c2b2ccd6f5b853351789538df ]-[ Crazy.Rich.Asians.2018.MULTi.2160p.UHD.BluRay.x265-SESKAPiLE[EtHD] ]-[ 11.65GB ]-[ 2019-01-17 12:43:06 ]
[ #14501445 ]-[ 6e2fde6e72a3e61d0dd862fd18f217c7a6460615 ]-[ 摘金奇缘.Crazy.Rich.Asians.2018.中英字幕.BDrip.720P-人人影视.mp4 ]-[ 1kB ]-[ 2019-01-17 12:36:04 ]
[ #14441935 ]-[ da52fc66fd32cb643a30c9007f39fa72f4fe7b19 ]-[ Crazy.Rich.Asians.2018.BDRip.1.46Gb.D.MegaPeer ]-[ 1kB ]-[ 2019-01-16 09:48:03 ]
[ #14440544 ]-[ 23e2bf2eb59f4782678434a09a403464276b5d00 ]-[ 摘金奇缘.Crazy.Rich.Asians.2018.中英字幕.720p.WEB-DL.x264.AAC-圣城家... ]-[ 1.8GB ]-[ 2019-01-16 09:10:33 ]
[ #14395686 ]-[ 3597d5a3490c4772c50d755d2fc600119aace375 ]-[ Crazy.Rich.Asians.2018.BDRip.XviD.LATINO ]-[ 1.43GB ]-[ 2019-01-15 09:51:20 ]
[ #14238988 ]-[ 1d59a296bf4e13edff13bcfa882b75dc365739b0 ]-[ Crazy.Rich.Asians.2018.DVDRip.AC3.X264-iFT ]-[ 1kB ]-[ 2019-01-12 14:01:04 ]
[ #14238760 ]-[ aaba53eef024ac4f7900fe3aaed8e4476986da47 ]-[ Crazy.rich.asians.2018.BDRip.2.13Gb.MegaPeer ]-[ 2.13GB ]-[ 2019-01-12 13:57:08 ]
[ #14227871 ]-[ 8ecacdbbf0b46dd71d6d574220a54c050da53797 ]-[ Crazy.Rich.Asians.2018.2160p.RUS.UHD.BluRay.HDR.HEVC.DTS-HD.MA.5.1-hdmаniас ]-[ 59.85GB ]-[ 2019-01-12 11:03:06 ]
[ #14220940 ]-[ 18b348ff3950cae313a506894cb82ec283f30cc8 ]-[ Crazy.Rich.Asians.2018.SWESUB.720p.BluRay.x264.mp4 ]-[ 1kB ]-[ 2019-01-12 08:22:03 ]
[ #14177300 ]-[ 6e65eb1c84a38bac0e328ff10bd60ec02999db7b ]-[ 【度盘网www.dupanwang.com】摘金奇缘.Crazy.Rich.Asians.2018.中英字幕... ]-[ 1.66GB ]-[ 2019-01-11 15:01:02 ]
[ #14167146 ]-[ 521d7e490136097858f50fea479f5aac5855e927 ]-[ Crazy.Rich.Asians.2018.HDRip.XviD.AC3-EVO ]-[ 1kB ]-[ 2019-01-11 11:28:03 ]
[ #14097247 ]-[ a7f38c1be95fa2a9b624553fc100e465f9b8b251 ]-[ Crazy.Rich.Asians.2018.BDRip ]-[ 1kB ]-[ 2019-01-10 07:42:03 ]
[ #14053370 ]-[ 4a38116e24bc5c009214f6c2696156d9055f99cd ]-[ Crazy.Rich.Asians.2018.BRRip.XviD.AC3-EVO[EtMovies] ]-[ 1.38GB ]-[ 2019-01-09 13:55:32 ]
[ #14041036 ]-[ 50e703d2ba79370e1f1cb38bd6e8ec25e64a32ec ]-[ Crazy.Rich.Asians.2018.BDRip.x264-GECKOS[TGx] ]-[ 792.24MB ]-[ 2019-01-09 09:40:29 ]
[ #14039538 ]-[ 5b85f3cd0521f67167e189f42bb53918e6dbf713 ]-[ Crazy.Rich.Asians.2018.1080p.BluRay.x264.DTS-HD.MA.5.1-HDChina[EtHD] ]-[ 13.25GB ]-[ 2019-01-09 09:06:03 ]
[ #13987920 ]-[ f329105a30fd094b4a6e124ca6035144fb70567f ]-[ Crazy.Rich.Asian.2018.Multi.mUHD.2160p.x265.HDR.DD.5.1-DTOne ]-[ 4.68GB ]-[ 2019-01-08 11:22:18 ]
[ #13986496 ]-[ 82484fb64781dd6ea627a0d6cc34c16bd4252386 ]-[ Crazy.Rich.Asians.2018.720p.BluRay.H264.AACLLG ]-[ 1.19GB ]-[ 2019-01-08 10:52:36 ]
[ #13840638 ]-[ 260a3c2e7fa78ff9434ad146b22bc0efc8d74752 ]-[ Crazy.Rich.Asians.2018.1080p.BDRip.LAT.ENG ]-[ 1kB ]-[ 2019-01-06 05:59:04 ]
[ #13828189 ]-[ c933a3ba14fa8254edfcecb49d752432c62b8bb2 ]-[ 摘金奇缘.Crazy.Rich.Asians.2018.1080p.WEB-DL.DD5.1.H264.CHS.ENG-BTBT4K ]-[ 3.12GB ]-[ 2019-01-05 23:51:55 ]
[ #13782054 ]-[ e83cc73dd3f0b15e6a228d73a23878f50e66b185 ]-[ Crazy.Rich.Asians.2018.720p.BluRay.x264.DTS-HDC ]-[ 5.07GB ]-[ 2019-01-05 09:00:20 ]
[ #13708284 ]-[ 9c8f0c5be2fabe279e8b46d5690fd367b30e156d ]-[ Crazy.Rich.Asians.2018.BRRip.x264.AAC-WAR ]-[ 1.14GB ]-[ 2019-01-04 05:31:23 ]
[ #13690889 ]-[ 647b39a0b33920e85664fd4aa586ffcbec0446e8 ]-[ Crazy.Rich.Asians.2018.BDRip.1.46Gb.D ]-[ 1.46GB ]-[ 2019-01-03 22:05:34 ]
[ #13677398 ]-[ ce999b164ae15498bd22cb73df76f070cf0d739e ]-[ Crazy.Rich.Asians.2018.1080p.BluRay.x264.DTS-HD.MA.5.1-HDChina ]-[ 13.25GB ]-[ 2019-01-03 17:54:55 ]
[ #13641898 ]-[ 53469252b74ddd1ef11fab40d58bf7d2a0c6f86b ]-[ Crazy.Rich.Asians.2018.COMPLETE.BLURAY-LAZERS ]-[ 1kB ]-[ 2019-01-03 06:02:04 ]
[ #13599897 ]-[ 260a3c2e7fa78ff9434ad146b22bc0efc8d74752 ]-[ Crazy.Rich.Asians.2018.1080p.BDRip.LAT.ENG ]-[ 3.89GB ]-[ 2019-01-02 14:41:58 ]
[ #13570247 ]-[ 9efae948880f73410a3a6f550f2ddac2b06326a4 ]-[ Crazy.Rich.Asians.2018.1080p.BluRay.x264-[YTS.AM].mp4 ]-[ 1kB ]-[ 2019-01-02 02:40:04 ]
[ #13532038 ]-[ 0a5811d5d3f46c380e8ac52aab83f438a8f70c38 ]-[ Crazy.Rich.Asians.2018.720p.mkv ]-[ 1kB ]-[ 2019-01-01 13:14:03 ]
[ #13522224 ]-[ 5b2ecc17f45f8320184663b1019daf5b5a5a67a1 ]-[ Crazy.Rich.Asians.2018.2160p.UHD.BluRay.X265-IAMABLE[EtHD] ]-[ 11.11GB ]-[ 2019-01-01 09:29:45 ]
[ #13494538 ]-[ 58500a115f3d50880b12b1ff6b298b0ac1b3ab1c ]-[ 摘金奇缘.Crazy.Rich.Asians.2018.1080p-天天美剧字幕组.mp4 ]-[ 1kB ]-[ 2018-12-31 20:29:03 ]
[ #13486754 ]-[ d21198e91656990fc1c91365303cbe62a196e6ef ]-[ Crazy.rich.asians.2018.BDRip.2.13Gb.MegaPeer ]-[ 1kB ]-[ 2018-12-31 18:00:04 ]
[ #13469270 ]-[ 84f75314cf26eaf2a8840f269172d5a3ed9e8901 ]-[ Crazy.Rich.Asians.2018.720p.BRRip.X264.AC3-EVO[TGx] ]-[ 2.66GB ]-[ 2018-12-31 11:53:57 ]
[ #13381474 ]-[ 129dbab00cd435e1a2ae2e33eaaba8d4cf49e930 ]-[ Crazy.Rich.Asians.2018.1080p.BluRay.x264.DTS-HDC.mkv ]-[ 1kB ]-[ 2018-12-29 23:16:04 ]
[ #13329997 ]-[ f0ae19582bd632bf77a89d69cb124dddf4f935dd ]-[ Crazy.Rich.Asians.2018.1080p.BluRay.x264.DTS-HD.MA.5.1-HDC.mkv ]-[ 1kB ]-[ 2018-12-29 05:13:03 ]
[ #13290187 ]-[ c3ed594dd97719e08c0ef470a214dcec627007e0 ]-[ Crazy.Rich.Asians.2018.D.BDRip.1080p.seleZen.mkv ]-[ 1kB ]-[ 2018-12-28 14:56:05 ]
[ #13258418 ]-[ 8b4e24d853406ec09ceaeede854777ff0c7abcf3 ]-[ Crazy.Rich.Asians.2018.1080p.BluRay.H264.AAC-RARBG ]-[ 2.3GB ]-[ 2018-12-28 01:28:39 ]
[ #13251116 ]-[ f7fe67247464a2903d05d54dd189af0736a82869 ]-[ Crazy.Rich.Asians.2018.720p.WEB-DL.x264.AAC.RoHardSubbed-DST ]-[ 2.48GB ]-[ 2018-12-27 22:27:55 ]
[ #13223337 ]-[ 8676e337d19a88ad250b967c2585ea4184a38b51 ]-[ Crazy.Rich.Asians.2018.BRRip.XviD.AC3-EVO ]-[ 1kB ]-[ 2018-12-27 13:57:05 ]
[ #13221914 ]-[ 63722d5aaff7cb0ccd5eb5253b291ea5b2b7a58a ]-[ Crazy.Rich.Asians.2018.HDRip.XviD.AC3.LLG ]-[ 1.09GB ]-[ 2018-12-27 13:31:28 ]
[ #13219975 ]-[ 8ae9cb8bff912617410cfea8dfb45e150407ebf8 ]-[ [EX-TORRENTY.ORG] Crazy.Rich.Asians.2018.PL.480p.BDRip.XviD.AC3-AZQ ]-[ 2.22GB ]-[ 2018-12-27 12:54:56 ]
[ #13182295 ]-[ d060ae92b7be461ec60edec310e122e42753556d ]-[ Crazy.Rich.Asians.2018.BRRip.AC3.X264-CMRG[EtMovies] ]-[ 1.56GB ]-[ 2018-12-26 21:17:33 ]
[ #13153514 ]-[ d21198e91656990fc1c91365303cbe62a196e6ef ]-[ Crazy.rich.asians.2018.BDRip.2.13Gb.MegaPeer ]-[ 2.13GB ]-[ 2018-12-24 18:21:17 ]
[ #13144267 ]-[ 1065c83a57668bb64e29114d4c632ec6f251cfa7 ]-[ Crazy.Rich.Asians.2018.720p.WEB-DL.H264.AC3-EVO ]-[ 3.71GB ]-[ 2018-12-24 00:15:39 ]
[ #13140326 ]-[ cbf75c719d6776b9f9e72c9afc21ad2973b53130 ]-[ Crazy.Rich.Asians.2018.2160p.UHD.Blu-ray.Remux.HEVC.DTS-HD.MA5.1-HDRemuX ]-[ 54.36GB ]-[ 2018-12-23 18:19:46 ]
[ #13037242 ]-[ a9e37271afdb47bd82d7a82d329a77625745fd0a ]-[ Crazy.Rich.Asians.2018.720p.WEB-DL.XviD.AC3-FGT ]-[ 3.53GB ]-[ 2018-12-18 01:28:49 ]
[ #13027254 ]-[ f0192477d217f2df9755eab13818c436fd091989 ]-[ Crazy.Rich.Asians.2018.2160p.BluRay.x265.10bit.SDR.DTS-HD.MA.5.1-SWTYBLZ ]-[ 24.64GB ]-[ 2018-12-17 13:58:48 ]
[ #13023948 ]-[ 2b46c872541c2604f47747447f3711984223bdc2 ]-[ Crazy.Rich.Asians.2018.720p.Blu-ray.DTS.x264-PbK ]-[ 4.58GB ]-[ 2018-12-17 08:57:57 ]
[ #13022560 ]-[ 9435404b03cda3ca55888d0a87c609d4c42b8d2e ]-[ Crazy.Rich.Asians.2018.1080p.BluRay.x264-[YTS.AM] ]-[ 1.93GB ]-[ 2018-12-17 07:16:17 ]
[ #13020608 ]-[ a14ea51571a9c74c19b3a6c56c9acad776fe1616 ]-[ Crazy.Rich.Asians.2018.1080p.BluRay.DTS-HD.MA.5.1.X264-iFT ]-[ 14.21GB ]-[ 2018-12-17 04:58:27 ]
[ #13019746 ]-[ 42b02478ed5e640e53f8dd293363c4262c4a2fc7 ]-[ 摘金奇缘.Crazy.Rich.Asians.2018.HD720P.X264.AAC.中英字幕 ]-[ 2.4GB ]-[ 2018-12-17 02:55:36 ]
[ #13007785 ]-[ a43d4945d226d5f7ffc96a1dae3088b2292ad085 ]-[ [EX-TORRENTY.ORG] Crazy.Rich.Asians.2018.PL.720p.BluRay.x264.AC3-KiT ]-[ 4.44GB ]-[ 2018-12-16 12:59:56 ]
[ #12979164 ]-[ c77c418f98520d37314b85aedd1362996373d946 ]-[ Crazy.Rich.Asians.2018.DVDRip.AC3.X264-iFT[EtMovies] ]-[ 1.92GB ]-[ 2018-12-15 03:03:39 ]
[ #12972657 ]-[ 1c2f86989df4e2718ac6ce1cafc08375c21adeda ]-[ Crazy.Rich.Asians.2018.1080p.BluRay.x264.DTS.-.Hon3yHD ]-[ 3.2GB ]-[ 2018-12-14 18:05:26 ]
[ #12968228 ]-[ 66b47949082bb26cc431a21d66786b06fd77bff4 ]-[ Crazy.Rich.Asians.2018.BRRip.XviD.AC3-XVID ]-[ 1.73GB ]-[ 2018-12-14 13:49:33 ]
[ #12917546 ]-[ b69022fe9c456d0f7be0adf25380b4eae2ce95f3 ]-[ Crazy.Rich.Asians.2018.1080p.WEB-DL.DD5.1.H264-CMRG ]-[ 4.13GB ]-[ 2018-12-11 11:38:54 ]
[ #12907673 ]-[ 8f9a3e9c1e26f732aba0385606a3a2a9e2e5b2b4 ]-[ Crazy.Rich.Asians.2018.HDRip.AC3.X264-CMRG[EtMovies] ]-[ 1.33GB ]-[ 2018-12-10 19:16:26 ]
[ #12886472 ]-[ f07425f61990afc42e3e0672cd0fa6a01eac930a ]-[ Crazy.Rich.Asians.2018.BluRay.720p.x264 ]-[ 2.11GB ]-[ 2018-12-09 14:21:54 ]
[ #12872772 ]-[ 1ce826ff5dd173f3d9f7f3e8a564d9397f1a8a84 ]-[ {MINI Super-HQ}[email protected] ]-[ 3.92GB ]-[ 2018-12-08 17:29:21 ]
[ #12848166 ]-[ dbce3499438740cfd955ead3a1992e92d7daa7e8 ]-[ Crazy.Rich.Asians.2018.720p.BluRay.x264-GECKOS ]-[ 5.47GB ]-[ 2018-12-07 08:33:44 ]
[ #12812359 ]-[ 412dac63d35d4101b365206c9f706cc6814c7195 ]-[ Crazy.Rich.Asians.2018.720p.BluRay.H264.AAC-RARBG ]-[ 1.46GB ]-[ 2018-12-04 21:12:02 ]
[ #12797875 ]-[ c50b2fa4592f8b4bf6d4ac121d939cd589cb23b1 ]-[ Crazy.Rich.Asians.2018.720p.BluRay.x264-GECKOS[ArenaBG] ]-[ 5.47GB ]-[ 2018-12-03 23:30:10 ]
[ #12791855 ]-[ c855a3f7a720c098b4b1221ff357772feeb8fe37 ]-[ Crazy.Rich.Asians.2018.1080p.WEB-DL.DD5.1.H264-FGT ]-[ 4.13GB ]-[ 2018-12-03 17:46:05 ]
[ #12789909 ]-[ c359669adcacfc2d673eb020b2af9d488bf1f8fc ]-[ Crazy.Rich.Asians.2018.2160p.BluRay.HEVC.DTS-HD.MA.5.1-COASTER ]-[ 60.41GB ]-[ 2018-12-03 15:46:16 ]
[ #12788156 ]-[ 945351ecddf9cab0073a1b7e51552379dfcb3443 ]-[ Crazy.Rich.Asians.2018.1080p.BluRay.x264-GECKOS ]-[ 8.74GB ]-[ 2018-12-03 13:57:33 ]
[ #12770836 ]-[ 71652d7549cc257dbb5a8e0e4bf928cdf9f49d4a ]-[ Crazy.Rich.Asians.2018.WEB-DL.XviD.MP3-FGT ]-[ 1.52GB ]-[ 2018-12-02 12:40:58 ]
[ #12757361 ]-[ 925687f2313502a9eae0252855bc6aa7848972a9 ]-[ Crazy.Rich.Asians.2018.720p.10bit.BluRay.6CH.x265.HEVC-PSA ]-[ 1.13GB ]-[ 2018-12-01 14:07:05 ]
[ #12755205 ]-[ 8b08e26578871a87390644df2ae778896d5791ae ]-[ Crazy.Rich.Asians.2018.HDRip.XviD.AC3-EVO ]-[ 1.38GB ]-[ 2018-12-01 10:05:52 ]
[ #12747262 ]-[ c99ca35ccbc90c4e5a02567f95defb79dbcb224e ]-[ 摘金奇缘 Crazy.Rich.Asians.2018.1080p.WEB-DL.DD5.1.H264-homefei ]-[ 2.69GB ]-[ 2018-11-30 20:29:52 ]
[ #12736709 ]-[ e2d1a417c6ce86a7ed73b7d4352c24b24d7cf3fb ]-[ Crazy.Rich.Asians.2018.HDRip.XviD.AC3-EVO[TGx] ]-[ 1.38GB ]-[ 2018-11-30 03:30:00 ]
[ #12733027 ]-[ 31d4aeb18ced582f2c99258b74b398679c31ea81 ]-[ Crazy.Rich.Asians.2018.BRRip.XviD.AC3-EVO ]-[ 1.38GB ]-[ 2018-11-29 20:17:34 ]
[ #12731996 ]-[ a1adcec914167fa08b24d486164a6edd14e01a6b ]-[ Crazy.Rich.Asians.2018.BDRip.x264-GECKOS ]-[ 786.88MB ]-[ 2018-11-29 18:20:11 ]
[ #12727596 ]-[ 091b0e03669b0d840eb13b4caec9ac338b750796 ]-[ Crazy.Rich.Asians.2018.720p.BluRay.x264-GECKOS[rarbg] ]-[ 5.47GB ]-[ 2018-11-29 11:06:14 ]
[ #12714259 ]-[ a9801ed1d3eed171412eba0f8002ef37c089af39 ]-[ [ELECTRO-TORRENT.PL].Crazy.Rich.Asians.2018.PL.BDRip.XviD-KiT ]-[ 699.39MB ]-[ 2018-11-28 16:34:29 ]
[ #12706376 ]-[ 1dda65bc9f5c631f345fbbf3eb8778dd53c1d046 ]-[ Crazy.Rich.Asians.2018.1080p.BluRay.x264.DTS-HDC ]-[ 11.38GB ]-[ 2018-11-28 02:38:20 ]
[ #12700914 ]-[ fb0d40c3751289395e16f925b426c642f1aeac6a ]-[ Crazy.Rich.Asians.2018.BRRip.XviD.MP3-XVID ]-[ 1.52GB ]-[ 2018-11-27 18:53:52 ]
[ #12697984 ]-[ f7cc74b982d66a0310e8cb0887576c35bbac91d4 ]-[ Crazy.Rich.Asians.2018.HDRip.XviD.AC3-EVO ]-[ 1.38GB ]-[ 2018-11-27 16:27:59 ]
[ #12697227 ]-[ e71de11acdfa2c8eaa33c8ef0622bf02cd735784 ]-[ Crazy.Rich.Asians.2018.1080p.WEBRip.x264-[YTS.AM] ]-[ 1.92GB ]-[ 2018-11-27 15:36:26 ]
[ #12671450 ]-[ 12bebea08400adc5ee4dd7cc74903099fcbf264f ]-[ Crazy.Rich.Asians.2018.Bluray.1080p.DTS-HD.x264-Grym ]-[ 15.63GB ]-[ 2018-11-25 21:14:06 ]
[ #12666947 ]-[ af4483c574415f41c7f3b3a195f27842d0de629a ]-[ Crazy.Rich.Asians.2018.720p.WEB-DL.2CH.x265.HEVC-PSA ]-[ 961.6MB ]-[ 2018-11-25 17:14:38 ]
[ #12660722 ]-[ bf8c147607c2d53a627288f0a30d416678f2c702 ]-[ Crazy.Rich.Asians.2018.2160p.BluRay.x264.8bit.SDR.DTS-HD.MA.5.1-SWTYBLZ ]-[ 1kB ]-[ 2018-11-25 11:10:04 ]
[ #12660721 ]-[ f0192477d217f2df9755eab13818c436fd091989 ]-[ Crazy.Rich.Asians.2018.2160p.BluRay.x265.10bit.SDR.DTS-HD.MA.5.1-SWTYBLZ ]-[ 1kB ]-[ 2018-11-25 11:10:04 ]
[ #12658629 ]-[ ed9e199737624066a41fa5e86562363d2849f7dc ]-[ Crazy.Rich.Asians.2018.AMZN.WEB-DL.AAC2.0.H.264-NTG ]-[ 949.92MB ]-[ 2018-11-25 07:55:32 ]
[ #12654267 ]-[ 80fa7012b8b86ec10b9ea805601549fa80ae4157 ]-[ Crazy.Rich.Asians.2018.2160p.UHD.BluRay.X265.10bit.HDR.DTS-HD.MA.5.1-IAMABLE ]-[ 1kB ]-[ 2018-11-25 00:02:03 ]
[ #12646991 ]-[ c359669adcacfc2d673eb020b2af9d488bf1f8fc ]-[ Crazy.Rich.Asians.2018.2160p.BluRay.HEVC.DTS-HD.MA.5.1-COASTER ]-[ 1kB ]-[ 2018-11-24 16:46:04 ]
[ #12646990 ]-[ faf28c2121953986c5fc6aa8687e83fb2fade5b9 ]-[ Crazy.Rich.Asians.2018.2160p.BluRay.REMUX.HEVC.DTS-HD.MA.5.1-FGT ]-[ 1kB ]-[ 2018-11-24 16:46:04 ]
[ #12642564 ]-[ 4067accf131a2103a2a5e40675d55f06e08b4ff3 ]-[ Crazy.Rich.Asians.2018.720p.AMZN.WEB-DL.X264 ]-[ 2.07GB ]-[ 2018-11-24 11:49:19 ]
[ #12628594 ]-[ 1af08ff6975de02509e15034adb83ade8e6f79b6 ]-[ 摘金奇缘.Crazy.Rich.Asians.2018.BD720P.AAC.x264.English.CHS-ENG.BTDX8 ]-[ 1.87GB ]-[ 2018-11-23 15:46:30 ]
[ #12625388 ]-[ 882928e4e2af2b48b7c17f521182839f7488f346 ]-[ Crazy.Rich.Asians.2018.1080p.BluRay.x264-GECKOS[ArenaBG] ]-[ 8.75GB ]-[ 2018-11-23 10:37:33 ]
[ #12589791 ]-[ 231c8185bedd1bd88d17c6f79df850f03dcadae7 ]-[ Crazy.Rich.Asians.2018.1080p.BluRay.x264-GECKOS[rarbg] ]-[ 8.75GB ]-[ 2018-11-21 17:56:34 ]
[ #12583867 ]-[ 24a65eb8fd8412dcccc1fc40af703570b77b65bc ]-[ Crazy.Rich.Asians.2018.1080p.BluRay.x264-GECKOS[EtHD] ]-[ 8.75GB ]-[ 2018-11-21 12:47:30 ]
[ #12565387 ]-[ 8f5eebe7ac9d22622af0ff05f991c65aed7f469d ]-[ Crazy.Rich.Asians.2018.720p.WEB-DL.H264.AC3-EVO[TGx] ]-[ 3.71GB ]-[ 2018-11-20 14:33:47 ]
[ #12549983 ]-[ 45de8c3a3ba86fa53c86a8274715d4d923bf0ec5 ]-[ Crazy.Rich.Asians.2018.1080p.BluRay.REMUX.AVC.DTS-HD.MA.5.1-FGT ]-[ 32.91GB ]-[ 2018-11-19 19:27:51 ]
[ #12529353 ]-[ e8a19bafb0a552ca9f8a03b0618bef8406b37978 ]-[ [ DEVIL-TORRENTS.PL ] Crazy.Rich.Asians.2018.PLSUBBED.720p.BRRip.XviD.AC3-KRT ]-[ 2.92GB ]-[ 2018-11-18 22:53:07 ]
[ #12514793 ]-[ 00948e159f6bd689e50b56c6db8b402d22f6001e ]-[ Crazy.Rich.Asians.2018.1080p.WEB-DL.DD5.1.H264-CMRG[TGx] ]-[ 4.13GB ]-[ 2018-11-18 08:23:09 ]
[ #12505936 ]-[ 4b99c6f8c6cbcf35d46b2b7014126894abb8ba04 ]-[ Crazy.Rich.Asians.2018.HDRip.AC3.X264-CMRG[TGx] ]-[ 1.33GB ]-[ 2018-11-17 21:24:52 ]
[ #12497285 ]-[ 71cb8eb736e326b81ef52ddf70c83c1ed042780c ]-[ www.torrenting.com - Crazy.Rich.Asians.2018.1080p.WEB-DL.DD5.1.H264-CMRG ]-[ 4.13GB ]-[ 2018-11-17 12:18:22 ]
[ #12497150 ]-[ 529803782220d46a56a58b1e246a246ab1e5df62 ]-[ www.torrenting.com - Crazy.Rich.Asians.2018.BDRip.x264-GECKOS ]-[ 792.32MB ]-[ 2018-11-17 12:15:22 ]
[ #12492343 ]-[ 776b4b96297b13653b8f5ceb54ce316685f67ef9 ]-[ Crazy.Rich.Asians.2018.1080p.AMZN.WEB-DL.DDP5.1.H.264-NTG[TGx] ]-[ 4.45GB ]-[ 2018-11-17 07:14:03 ]
[ #12483830 ]-[ 3d62518be8eff3975150b6ef46257526f85830c1 ]-[ 摘金奇缘.Crazy.Rich.Asians.2018.BD720P.X264.AAC.English.CHS-ENG.Mp4Ba ]-[ 2.49GB ]-[ 2018-11-16 19:38:58 ]
[ #12472094 ]-[ d1feb06ea5ec7fb8c85f3ac618d3f78cc5258f3f ]-[ Crazy.Rich.Asians.2018.720p.BrRip.2CH.x265.HEVC-PSA ]-[ 948.55MB ]-[ 2018-11-16 03:50:58 ]

Next page -> #1